Terminal Aerodrome Forecast
Issued by NWS Blacksburg, VA

Home | Current Version | Previous Version | Text Only | Print | Product List | Glossary On
Versions: 1 2 3 4 5 6 7 8 9 10 11 12 13 14 15 16 17 18 19 20 21 22 23 24 25 26 27 28 29 30
000
FTUS41 KRNK 011127
TAFROA
TAF
KROA 011127Z 0112/0212 00000KT P6SM -SNPL OVC025
     FM011400 12007KT 5SM -FZRAPL BR SCT007 OVC015
     FM012000 18003KT 2SM BR OVC005
     FM020400 25004KT 4SM BR OVC020
     FM020900 29007KT P6SM BKN040=

USA.gov is the U.S. government's official web portal to all federal, state and local government web resources and services.